sensor_id;sensor_type;location;lat;lon;timestamp;P1;durP1;ratioP1;P2;durP2;ratioP2
26742;SDS011;14341;51.256;22.478;2022-09-13T00:00:55;46.00;;;31.08;;
26742;SDS011;14341;51.256;22.478;2022-09-13T00:04:01;46.60;;;31.42;;
26742;SDS011;14341;51.256;22.478;2022-09-13T00:07:04;50.55;;;32.13;;
26742;SDS011;14341;51.256;22.478;2022-09-13T00:10:07;48.38;;;31.15;;
26742;SDS011;14341;51.256;22.478;2022-09-13T00:13:11;45.17;;;30.23;;
26742;SDS011;14341;51.256;22.478;2022-09-13T00:16:16;43.47;;;29.23;;
26742;SDS011;14341;51.256;22.478;2022-09-13T00:19:22;44.40;;;28.80;;
26742;SDS011;14341;51.256;22.478;2022-09-13T00:22:25;39.60;;;28.27;;
26742;SDS011;14341;51.256;22.478;2022-09-13T00:25:29;47.58;;;30.38;;
26742;SDS011;14341;51.256;22.478;2022-09-13T00:28:32;44.53;;;29.80;;
26742;SDS011;14341;51.256;22.478;2022-09-13T00:31:36;45.78;;;29.92;;
26742;SDS011;14341;51.256;22.478;2022-09-13T00:34:41;47.38;;;29.90;;
26742;SDS011;14341;51.256;22.478;2022-09-13T00:37:44;43.78;;;30.08;;
26742;SDS011;14341;51.256;22.478;2022-09-13T00:40:47;44.95;;;30.98;;
26742;SDS011;14341;51.256;22.478;2022-09-13T00:43:51;42.40;;;30.42;;
26742;SDS011;14341;51.256;22.478;2022-09-13T00:46:56;44.50;;;30.40;;
26742;SDS011;14341;51.256;22.478;2022-09-13T00:50:02;48.42;;;31.77;;
26742;SDS011;14341;51.256;22.478;2022-09-13T00:53:10;47.53;;;32.03;;
26742;SDS011;14341;51.256;22.478;2022-09-13T00:56:16;51.78;;;33.78;;
26742;SDS011;14341;51.256;22.478;2022-09-13T00:59:24;51.22;;;31.70;;
26742;SDS011;14341;51.256;22.478;2022-09-13T01:02:30;49.28;;;31.67;;
26742;SDS011;14341;51.256;22.478;2022-09-13T01:10:28;50.47;;;33.72;;
26742;SDS011;14341;51.256;22.478;2022-09-13T01:17:02;51.38;;;35.05;;
26742;SDS011;14341;51.256;22.478;2022-09-13T01:20:06;49.28;;;33.30;;
26742;SDS011;14341;51.256;22.478;2022-09-13T01:26:53;48.40;;;32.83;;
26742;SDS011;14341;51.256;22.478;2022-09-13T01:30:15;47.70;;;31.25;;
26742;SDS011;14341;51.256;22.478;2022-09-13T01:33:25;42.33;;;31.05;;
26742;SDS011;14341;51.256;22.478;2022-09-13T01:36:53;48.28;;;31.60;;
26742;SDS011;14341;51.256;22.478;2022-09-13T01:40:16;46.15;;;30.63;;
26742;SDS011;14341;51.256;22.478;2022-09-13T01:43:37;47.85;;;30.40;;
26742;SDS011;14341;51.256;22.478;2022-09-13T01:46:52;40.70;;;30.20;;
26742;SDS011;14341;51.256;22.478;2022-09-13T01:50:10;45.90;;;31.58;;
26742;SDS011;14341;51.256;22.478;2022-09-13T01:53:22;47.28;;;31.05;;
26742;SDS011;14341;51.256;22.478;2022-09-13T01:56:35;49.10;;;33.53;;
26742;SDS011;14341;51.256;22.478;2022-09-13T01:59:45;50.05;;;32.35;;
26742;SDS011;14341;51.256;22.478;2022-09-13T02:02:54;41.92;;;28.65;;
26742;SDS011;14341;51.256;22.478;2022-09-13T02:06:05;44.38;;;29.63;;
26742;SDS011;14341;51.256;22.478;2022-09-13T02:09:12;43.28;;;29.08;;
26742;SDS011;14341;51.256;22.478;2022-09-13T02:12:22;41.72;;;29.77;;
26742;SDS011;14341;51.256;22.478;2022-09-13T02:15:28;41.58;;;28.05;;
26742;SDS011;14341;51.256;22.478;2022-09-13T02:18:36;43.90;;;31.30;;
26742;SDS011;14341;51.256;22.478;2022-09-13T02:21:42;44.88;;;28.63;;
26742;SDS011;14341;51.256;22.478;2022-09-13T02:24:50;45.25;;;30.73;;
26742;SDS011;14341;51.256;22.478;2022-09-13T02:27:57;46.35;;;31.02;;
26742;SDS011;14341;51.256;22.478;2022-09-13T02:31:05;47.97;;;31.52;;
26742;SDS011;14341;51.256;22.478;2022-09-13T02:34:13;50.80;;;33.60;;
26742;SDS011;14341;51.256;22.478;2022-09-13T02:37:21;44.03;;;30.42;;
26742;SDS011;14341;51.256;22.478;2022-09-13T02:40:29;45.67;;;32.40;;
26742;SDS011;14341;51.256;22.478;2022-09-13T02:43:36;54.75;;;32.53;;
26742;SDS011;14341;51.256;22.478;2022-09-13T02:46:46;52.35;;;32.28;;
26742;SDS011;14341;51.256;22.478;2022-09-13T02:50:09;46.20;;;31.55;;
26742;SDS011;14341;51.256;22.478;2022-09-13T02:53:22;48.47;;;33.23;;
26742;SDS011;14341;51.256;22.478;2022-09-13T02:56:33;50.97;;;33.63;;
26742;SDS011;14341;51.256;22.478;2022-09-13T02:59:44;51.08;;;33.30;;
26742;SDS011;14341;51.256;22.478;2022-09-13T03:02:48;46.85;;;33.00;;
26742;SDS011;14341;51.256;22.478;2022-09-13T03:05:55;51.13;;;32.95;;
26742;SDS011;14341;51.256;22.478;2022-09-13T03:08:59;50.35;;;33.17;;
26742;SDS011;14341;51.256;22.478;2022-09-13T03:12:13;53.70;;;32.67;;
26742;SDS011;14341;51.256;22.478;2022-09-13T03:15:29;39.60;;;24.90;;
26742;SDS011;14341;51.256;22.478;2022-09-13T03:18:48;43.72;;;30.50;;
26742;SDS011;14341;51.256;22.478;2022-09-13T03:22:13;45.55;;;30.88;;
26742;SDS011;14341;51.256;22.478;2022-09-13T03:25:30;52.22;;;32.35;;
26742;SDS011;14341;51.256;22.478;2022-09-13T03:28:48;45.72;;;32.15;;
26742;SDS011;14341;51.256;22.478;2022-09-13T03:32:04;49.13;;;31.92;;
26742;SDS011;14341;51.256;22.478;2022-09-13T03:35:22;46.28;;;30.27;;
26742;SDS011;14341;51.256;22.478;2022-09-13T03:38:35;40.75;;;28.05;;
26742;SDS011;14341;51.256;22.478;2022-09-13T03:41:44;46.13;;;29.13;;
26742;SDS011;14341;51.256;22.478;2022-09-13T03:44:52;40.60;;;28.17;;
26742;SDS011;14341;51.256;22.478;2022-09-13T03:47:58;44.15;;;27.88;;
26742;SDS011;14341;51.256;22.478;2022-09-13T03:51:04;43.05;;;27.73;;
26742;SDS011;14341;51.256;22.478;2022-09-13T03:54:10;39.97;;;26.85;;
26742;SDS011;14341;51.256;22.478;2022-09-13T03:57:20;43.05;;;26.88;;
26742;SDS011;14341;51.256;22.478;2022-09-13T04:00:24;45.63;;;26.83;;
26742;SDS011;14341;51.256;22.478;2022-09-13T04:03:27;34.53;;;25.35;;
26742;SDS011;14341;51.256;22.478;2022-09-13T04:06:31;40.80;;;26.40;;
26742;SDS011;14341;51.256;22.478;2022-09-13T04:09:35;39.53;;;26.88;;
26742;SDS011;14341;51.256;22.478;2022-09-13T04:12:39;43.17;;;27.10;;
26742;SDS011;14341;51.256;22.478;2022-09-13T04:15:42;47.03;;;28.10;;
26742;SDS011;14341;51.256;22.478;2022-09-13T04:18:45;49.58;;;29.23;;
26742;SDS011;14341;51.256;22.478;2022-09-13T04:21:49;40.15;;;28.08;;
26742;SDS011;14341;51.256;22.478;2022-09-13T04:24:54;43.83;;;29.10;;
26742;SDS011;14341;51.256;22.478;2022-09-13T04:28:02;30.00;;;20.13;;
26742;SDS011;14341;51.256;22.478;2022-09-13T04:31:06;41.67;;;28.42;;
26742;SDS011;14341;51.256;22.478;2022-09-13T04:34:09;40.25;;;27.83;;
26742;SDS011;14341;51.256;22.478;2022-09-13T04:37:13;42.30;;;27.70;;
26742;SDS011;14341;51.256;22.478;2022-09-13T04:40:18;37.80;;;26.50;;
26742;SDS011;14341;51.256;22.478;2022-09-13T04:43:23;36.15;;;25.05;;
26742;SDS011;14341;51.256;22.478;2022-09-13T04:46:26;38.13;;;25.50;;
26742;SDS011;14341;51.256;22.478;2022-09-13T04:49:30;48.83;;;26.88;;
26742;SDS011;14341;51.256;22.478;2022-09-13T04:52:34;35.90;;;25.20;;
26742;SDS011;14341;51.256;22.478;2022-09-13T04:55:39;51.13;;;28.98;;
26742;SDS011;14341;51.256;22.478;2022-09-13T04:58:42;130.95;;;29.67;;
26742;SDS011;14341;51.256;22.478;2022-09-13T05:01:46;77.13;;;29.33;;
26742;SDS011;14341;51.256;22.478;2022-09-13T05:04:49;50.60;;;29.00;;
26742;SDS011;14341;51.256;22.478;2022-09-13T05:07:52;106.30;;;29.90;;
26742;SDS011;14341;51.256;22.478;2022-09-13T05:10:57;156.57;;;29.13;;
26742;SDS011;14341;51.256;22.478;2022-09-13T05:14:01;149.52;;;29.40;;
26742;SDS011;14341;51.256;22.478;2022-09-13T05:17:06;150.30;;;29.75;;
26742;SDS011;14341;51.256;22.478;2022-09-13T05:20:09;57.70;;;27.75;;
26742;SDS011;14341;51.256;22.478;2022-09-13T05:23:15;60.25;;;27.77;;
26742;SDS011;14341;51.256;22.478;2022-09-13T05:26:20;60.75;;;27.90;;
26742;SDS011;14341;51.256;22.478;2022-09-13T05:29:24;96.82;;;26.80;;
26742;SDS011;14341;51.256;22.478;2022-09-13T05:32:29;154.30;;;26.98;;
26742;SDS011;14341;51.256;22.478;2022-09-13T05:35:33;179.02;;;27.65;;
26742;SDS011;14341;51.256;22.478;2022-09-13T05:38:36;117.78;;;37.28;;
26742;SDS011;14341;51.256;22.478;2022-09-13T05:41:40;249.95;;;53.45;;
26742;SDS011;14341;51.256;22.478;2022-09-13T05:44:44;158.35;;;28.60;;
26742;SDS011;14341;51.256;22.478;2022-09-13T05:47:49;140.60;;;26.75;;
26742;SDS011;14341;51.256;22.478;2022-09-13T05:50:52;54.00;;;26.63;;
26742;SDS011;14341;51.256;22.478;2022-09-13T05:53:59;122.50;;;27.50;;
26742;SDS011;14341;51.256;22.478;2022-09-13T05:57:04;78.63;;;26.30;;
26742;SDS011;14341;51.256;22.478;2022-09-13T06:00:07;63.15;;;26.00;;
26742;SDS011;14341;51.256;22.478;2022-09-13T06:03:14;37.33;;;25.35;;
26742;SDS011;14341;51.256;22.478;2022-09-13T06:06:17;39.42;;;24.75;;
26742;SDS011;14341;51.256;22.478;2022-09-13T06:09:21;31.60;;;23.20;;
26742;SDS011;14341;51.256;22.478;2022-09-13T06:12:26;78.30;;;57.83;;
26742;SDS011;14341;51.256;22.478;2022-09-13T06:15:30;36.10;;;28.35;;
26742;SDS011;14341;51.256;22.478;2022-09-13T06:18:38;28.08;;;21.65;;
26742;SDS011;14341;51.256;22.478;2022-09-13T06:21:42;31.10;;;21.73;;
26742;SDS011;14341;51.256;22.478;2022-09-13T06:24:45;27.10;;;21.33;;
26742;SDS011;14341;51.256;22.478;2022-09-13T06:27:52;25.05;;;19.02;;
26742;SDS011;14341;51.256;22.478;2022-09-13T06:30:59;39.20;;;28.60;;
26742;SDS011;14341;51.256;22.478;2022-09-13T06:34:04;27.98;;;20.58;;
26742;SDS011;14341;51.256;22.478;2022-09-13T06:37:07;26.25;;;20.08;;
26742;SDS011;14341;51.256;22.478;2022-09-13T06:40:11;24.45;;;18.58;;
26742;SDS011;14341;51.256;22.478;2022-09-13T06:43:17;22.48;;;18.80;;
26742;SDS011;14341;51.256;22.478;2022-09-13T06:46:22;28.23;;;20.90;;
26742;SDS011;14341;51.256;22.478;2022-09-13T06:49:26;70.72;;;51.92;;
26742;SDS011;14341;51.256;22.478;2022-09-13T06:52:32;40.58;;;30.73;;
26742;SDS011;14341;51.256;22.478;2022-09-13T06:55:35;31.65;;;23.38;;
26742;SDS011;14341;51.256;22.478;2022-09-13T06:58:40;46.63;;;39.70;;
26742;SDS011;14341;51.256;22.478;2022-09-13T07:01:45;26.15;;;20.27;;
26742;SDS011;14341;51.256;22.478;2022-09-13T07:04:49;17.98;;;14.32;;
26742;SDS011;14341;51.256;22.478;2022-09-13T07:07:53;17.38;;;14.48;;
26742;SDS011;14341;51.256;22.478;2022-09-13T07:10:56;14.65;;;12.82;;
26742;SDS011;14341;51.256;22.478;2022-09-13T07:14:02;16.08;;;12.50;;
26742;SDS011;14341;51.256;22.478;2022-09-13T07:17:07;14.75;;;11.52;;
26742;SDS011;14341;51.256;22.478;2022-09-13T07:20:14;14.73;;;11.48;;
26742;SDS011;14341;51.256;22.478;2022-09-13T07:23:18;11.60;;;10.00;;
26742;SDS011;14341;51.256;22.478;2022-09-13T07:26:22;12.18;;;9.73;;
26742;SDS011;14341;51.256;22.478;2022-09-13T07:29:29;12.50;;;9.77;;
26742;SDS011;14341;51.256;22.478;2022-09-13T07:32:33;14.70;;;10.85;;
26742;SDS011;14341;51.256;22.478;2022-09-13T07:35:38;13.80;;;9.70;;
26742;SDS011;14341;51.256;22.478;2022-09-13T07:38:41;10.95;;;8.18;;
26742;SDS011;14341;51.256;22.478;2022-09-13T07:41:47;14.13;;;8.85;;
26742;SDS011;14341;51.256;22.478;2022-09-13T07:44:53;41.13;;;30.33;;
26742;SDS011;14341;51.256;22.478;2022-09-13T07:47:56;9.00;;;7.15;;
26742;SDS011;14341;51.256;22.478;2022-09-13T07:51:01;8.75;;;6.88;;
26742;SDS011;14341;51.256;22.478;2022-09-13T07:54:09;8.85;;;7.00;;
26742;SDS011;14341;51.256;22.478;2022-09-13T07:57:14;7.75;;;6.47;;
26742;SDS011;14341;51.256;22.478;2022-09-13T08:00:23;6.97;;;6.20;;
26742;SDS011;14341;51.256;22.478;2022-09-13T08:03:27;6.97;;;6.00;;
26742;SDS011;14341;51.256;22.478;2022-09-13T08:06:31;6.07;;;5.45;;
26742;SDS011;14341;51.256;22.478;2022-09-13T08:09:36;9.48;;;5.68;;
26742;SDS011;14341;51.256;22.478;2022-09-13T08:12:40;8.27;;;6.20;;
26742;SDS011;14341;51.256;22.478;2022-09-13T08:15:45;6.05;;;5.13;;
26742;SDS011;14341;51.256;22.478;2022-09-13T08:18:49;8.35;;;6.10;;
26742;SDS011;14341;51.256;22.478;2022-09-13T08:21:54;8.82;;;6.65;;
26742;SDS011;14341;51.256;22.478;2022-09-13T08:24:58;9.82;;;6.32;;
26742;SDS011;14341;51.256;22.478;2022-09-13T08:28:05;7.53;;;5.93;;
26742;SDS011;14341;51.256;22.478;2022-09-13T08:31:14;9.55;;;7.20;;
26742;SDS011;14341;51.256;22.478;2022-09-13T08:34:21;7.32;;;6.25;;
26742;SDS011;14341;51.256;22.478;2022-09-13T08:37:24;13.00;;;6.18;;
26742;SDS011;14341;51.256;22.478;2022-09-13T08:40:29;7.97;;;5.60;;
26742;SDS011;14341;51.256;22.478;2022-09-13T08:43:39;6.55;;;5.53;;
26742;SDS011;14341;51.256;22.478;2022-09-13T08:46:52;7.43;;;5.35;;
26742;SDS011;14341;51.256;22.478;2022-09-13T08:50:01;5.68;;;5.07;;
26742;SDS011;14341;51.256;22.478;2022-09-13T08:53:17;6.13;;;5.30;;
26742;SDS011;14341;51.256;22.478;2022-09-13T08:56:26;6.38;;;5.65;;
26742;SDS011;14341;51.256;22.478;2022-09-13T08:59:43;9.63;;;5.28;;
26742;SDS011;14341;51.256;22.478;2022-09-13T09:07:19;5.28;;;4.65;;
26742;SDS011;14341;51.256;22.478;2022-09-13T09:10:26;7.88;;;4.78;;
26742;SDS011;14341;51.256;22.478;2022-09-13T09:13:34;10.65;;;7.30;;
26742;SDS011;14341;51.256;22.478;2022-09-13T09:16:42;4.60;;;4.00;;
26742;SDS011;14341;51.256;22.478;2022-09-13T09:19:51;5.10;;;3.70;;
26742;SDS011;14341;51.256;22.478;2022-09-13T09:23:03;5.43;;;4.78;;
26742;SDS011;14341;51.256;22.478;2022-09-13T09:26:13;6.15;;;4.40;;
26742;SDS011;14341;51.256;22.478;2022-09-13T09:29:19;5.75;;;4.60;;
26742;SDS011;14341;51.256;22.478;2022-09-13T09:32:43;5.65;;;5.07;;
26742;SDS011;14341;51.256;22.478;2022-09-13T09:35:55;7.53;;;4.85;;
26742;SDS011;14341;51.256;22.478;2022-09-13T09:39:08;7.25;;;4.43;;
26742;SDS011;14341;51.256;22.478;2022-09-13T09:42:15;4.45;;;3.60;;
26742;SDS011;14341;51.256;22.478;2022-09-13T09:45:23;5.55;;;4.90;;
26742;SDS011;14341;51.256;22.478;2022-09-13T09:48:29;5.50;;;4.60;;
26742;SDS011;14341;51.256;22.478;2022-09-13T09:51:41;7.18;;;4.65;;
26742;SDS011;14341;51.256;22.478;2022-09-13T09:54:47;5.28;;;4.30;;
26742;SDS011;14341;51.256;22.478;2022-09-13T09:57:52;4.80;;;4.05;;
26742;SDS011;14341;51.256;22.478;2022-09-13T10:00:58;6.13;;;4.07;;
26742;SDS011;14341;51.256;22.478;2022-09-13T10:04:04;6.43;;;5.47;;
26742;SDS011;14341;51.256;22.478;2022-09-13T10:07:17;6.55;;;5.45;;
26742;SDS011;14341;51.256;22.478;2022-09-13T10:10:31;10.63;;;8.43;;
26742;SDS011;14341;51.256;22.478;2022-09-13T10:13:39;32.58;;;24.95;;
26742;SDS011;14341;51.256;22.478;2022-09-13T10:17:15;7.50;;;4.65;;
26742;SDS011;14341;51.256;22.478;2022-09-13T10:20:21;6.32;;;4.90;;
26742;SDS011;14341;51.256;22.478;2022-09-13T10:23:27;6.35;;;4.82;;
26742;SDS011;14341;51.256;22.478;2022-09-13T10:26:35;8.10;;;4.75;;
26742;SDS011;14341;51.256;22.478;2022-09-13T10:29:38;7.85;;;4.80;;
26742;SDS011;14341;51.256;22.478;2022-09-13T10:32:53;6.82;;;4.68;;
26742;SDS011;14341;51.256;22.478;2022-09-13T10:35:58;6.03;;;4.43;;
26742;SDS011;14341;51.256;22.478;2022-09-13T10:39:05;6.45;;;4.40;;
26742;SDS011;14341;51.256;22.478;2022-09-13T10:42:19;6.60;;;3.90;;
26742;SDS011;14341;51.256;22.478;2022-09-13T10:45:27;6.38;;;4.60;;
26742;SDS011;14341;51.256;22.478;2022-09-13T10:48:43;7.05;;;4.13;;
26742;SDS011;14341;51.256;22.478;2022-09-13T10:51:48;5.57;;;3.67;;
26742;SDS011;14341;51.256;22.478;2022-09-13T10:54:54;6.10;;;4.00;;
26742;SDS011;14341;51.256;22.478;2022-09-13T10:58:25;5.03;;;4.20;;
26742;SDS011;14341;51.256;22.478;2022-09-13T11:01:43;6.50;;;3.78;;
26742;SDS011;14341;51.256;22.478;2022-09-13T11:05:41;4.43;;;3.35;;
26742;SDS011;14341;51.256;22.478;2022-09-13T11:13:13;5.03;;;3.25;;
26742;SDS011;14341;51.256;22.478;2022-09-13T11:21:35;3.53;;;3.00;;
26742;SDS011;14341;51.256;22.478;2022-09-13T11:25:02;3.42;;;2.67;;
26742;SDS011;14341;51.256;22.478;2022-09-13T12:04:26;4.28;;;2.40;;
26742;SDS011;14341;51.256;22.478;2022-09-13T12:07:35;3.75;;;2.58;;
26742;SDS011;14341;51.256;22.478;2022-09-13T12:10:44;3.78;;;3.00;;
26742;SDS011;14341;51.256;22.478;2022-09-13T12:13:52;3.70;;;2.50;;
26742;SDS011;14341;51.256;22.478;2022-09-13T12:17:01;4.00;;;2.67;;
26742;SDS011;14341;51.256;22.478;2022-09-13T12:20:15;5.05;;;2.70;;
26742;SDS011;14341;51.256;22.478;2022-09-13T12:23:27;3.53;;;2.70;;
26742;SDS011;14341;51.256;22.478;2022-09-13T13:16:40;5.50;;;3.45;;
26742;SDS011;14341;51.256;22.478;2022-09-13T13:27:42;4.93;;;3.08;;
26742;SDS011;14341;51.256;22.478;2022-09-13T13:31:01;4.77;;;3.27;;
26742;SDS011;14341;51.256;22.478;2022-09-13T13:37:48;5.45;;;3.20;;
26742;SDS011;14341;51.256;22.478;2022-09-13T13:44:55;7.15;;;4.55;;
26742;SDS011;14341;51.256;22.478;2022-09-13T13:48:36;6.70;;;4.28;;
26742;SDS011;14341;51.256;22.478;2022-09-13T13:51:40;9.30;;;3.63;;
26742;SDS011;14341;51.256;22.478;2022-09-13T13:54:58;4.22;;;3.35;;
26742;SDS011;14341;51.256;22.478;2022-09-13T13:58:09;4.07;;;3.30;;
26742;SDS011;14341;51.256;22.478;2022-09-13T14:01:34;7.72;;;3.78;;
26742;SDS011;14341;51.256;22.478;2022-09-13T14:04:59;5.35;;;3.45;;
26742;SDS011;14341;51.256;22.478;2022-09-13T14:08:28;4.97;;;3.65;;
26742;SDS011;14341;51.256;22.478;2022-09-13T14:11:44;4.30;;;3.33;;
26742;SDS011;14341;51.256;22.478;2022-09-13T14:15:12;4.05;;;3.10;;
26742;SDS011;14341;51.256;22.478;2022-09-13T14:18:41;4.40;;;3.30;;
26742;SDS011;14341;51.256;22.478;2022-09-13T14:22:13;4.82;;;2.97;;
26742;SDS011;14341;51.256;22.478;2022-09-13T14:25:22;7.78;;;3.40;;
26742;SDS011;14341;51.256;22.478;2022-09-13T14:28:33;4.53;;;3.20;;
26742;SDS011;14341;51.256;22.478;2022-09-13T14:31:37;4.18;;;2.80;;
26742;SDS011;14341;51.256;22.478;2022-09-13T14:38:30;3.97;;;3.00;;
26742;SDS011;14341;51.256;22.478;2022-09-13T14:41:36;8.23;;;3.88;;
26742;SDS011;14341;51.256;22.478;2022-09-13T14:44:43;5.22;;;3.50;;
26742;SDS011;14341;51.256;22.478;2022-09-13T14:47:49;5.13;;;3.28;;
26742;SDS011;14341;51.256;22.478;2022-09-13T14:50:58;4.15;;;3.60;;
26742;SDS011;14341;51.256;22.478;2022-09-13T14:54:09;4.90;;;2.90;;
26742;SDS011;14341;51.256;22.478;2022-09-13T14:57:35;5.85;;;3.08;;
26742;SDS011;14341;51.256;22.478;2022-09-13T15:00:47;6.18;;;3.47;;
26742;SDS011;14341;51.256;22.478;2022-09-13T15:08:24;5.55;;;3.28;;
26742;SDS011;14341;51.256;22.478;2022-09-13T15:12:01;6.85;;;3.85;;
26742;SDS011;14341;51.256;22.478;2022-09-13T15:19:15;7.15;;;4.03;;
26742;SDS011;14341;51.256;22.478;2022-09-13T15:23:09;5.82;;;4.30;;
26742;SDS011;14341;51.256;22.478;2022-09-13T15:26:19;9.80;;;4.70;;
26742;SDS011;14341;51.256;22.478;2022-09-13T15:29:51;7.13;;;4.35;;
26742;SDS011;14341;51.256;22.478;2022-09-13T15:33:24;6.72;;;4.30;;
26742;SDS011;14341;51.256;22.478;2022-09-13T15:36:41;5.65;;;4.10;;
26742;SDS011;14341;51.256;22.478;2022-09-13T15:39:46;10.63;;;3.92;;
26742;SDS011;14341;51.256;22.478;2022-09-13T15:42:52;11.07;;;5.13;;
26742;SDS011;14341;51.256;22.478;2022-09-13T15:46:08;8.48;;;5.55;;
26742;SDS011;14341;51.256;22.478;2022-09-13T15:49:34;15.45;;;9.77;;
26742;SDS011;14341;51.256;22.478;2022-09-13T15:52:58;20.85;;;8.50;;
26742;SDS011;14341;51.256;22.478;2022-09-13T15:56:13;16.15;;;8.10;;
26742;SDS011;14341;51.256;22.478;2022-09-13T15:59:41;10.80;;;7.17;;
26742;SDS011;14341;51.256;22.478;2022-09-13T16:02:45;22.63;;;10.18;;
26742;SDS011;14341;51.256;22.478;2022-09-13T16:05:48;17.08;;;7.97;;
26742;SDS011;14341;51.256;22.478;2022-09-13T16:08:58;35.13;;;14.50;;
26742;SDS011;14341;51.256;22.478;2022-09-13T16:12:08;28.80;;;12.32;;
26742;SDS011;14341;51.256;22.478;2022-09-13T16:15:23;24.83;;;12.07;;
26742;SDS011;14341;51.256;22.478;2022-09-13T16:18:35;31.63;;;14.25;;
26742;SDS011;14341;51.256;22.478;2022-09-13T16:21:42;32.63;;;15.52;;
26742;SDS011;14341;51.256;22.478;2022-09-13T16:24:48;26.77;;;13.00;;
26742;SDS011;14341;51.256;22.478;2022-09-13T16:27:58;40.45;;;20.65;;
26742;SDS011;14341;51.256;22.478;2022-09-13T16:31:05;29.50;;;14.23;;
26742;SDS011;14341;51.256;22.478;2022-09-13T16:34:09;27.40;;;15.23;;
26742;SDS011;14341;51.256;22.478;2022-09-13T16:37:27;27.58;;;14.23;;
26742;SDS011;14341;51.256;22.478;2022-09-13T16:40:32;20.27;;;10.55;;
26742;SDS011;14341;51.256;22.478;2022-09-13T16:43:36;19.98;;;10.50;;
26742;SDS011;14341;51.256;22.478;2022-09-13T16:46:40;14.02;;;7.97;;
26742;SDS011;14341;51.256;22.478;2022-09-13T16:49:45;12.50;;;6.90;;
26742;SDS011;14341;51.256;22.478;2022-09-13T16:52:49;13.25;;;6.43;;
26742;SDS011;14341;51.256;22.478;2022-09-13T16:55:54;12.13;;;6.32;;
26742;SDS011;14341;51.256;22.478;2022-09-13T16:59:07;9.45;;;5.88;;
26742;SDS011;14341;51.256;22.478;2022-09-13T17:02:11;16.35;;;7.57;;
26742;SDS011;14341;51.256;22.478;2022-09-13T17:05:22;12.30;;;7.75;;
26742;SDS011;14341;51.256;22.478;2022-09-13T17:08:46;17.75;;;8.60;;
26742;SDS011;14341;51.256;22.478;2022-09-13T17:11:54;14.48;;;9.23;;
26742;SDS011;14341;51.256;22.478;2022-09-13T17:15:05;18.10;;;10.75;;
26742;SDS011;14341;51.256;22.478;2022-09-13T17:18:10;15.40;;;10.83;;
26742;SDS011;14341;51.256;22.478;2022-09-13T17:21:16;18.85;;;11.40;;
26742;SDS011;14341;51.256;22.478;2022-09-13T17:24:29;20.30;;;11.98;;
26742;SDS011;14341;51.256;22.478;2022-09-13T17:28:02;23.98;;;9.73;;
26742;SDS011;14341;51.256;22.478;2022-09-13T17:31:36;27.92;;;13.50;;
26742;SDS011;14341;51.256;22.478;2022-09-13T17:35:17;26.63;;;13.50;;
26742;SDS011;14341;51.256;22.478;2022-09-13T17:38:24;21.60;;;12.15;;
26742;SDS011;14341;51.256;22.478;2022-09-13T17:41:28;20.25;;;13.05;;
26742;SDS011;14341;51.256;22.478;2022-09-13T17:44:35;23.42;;;13.80;;
26742;SDS011;14341;51.256;22.478;2022-09-13T17:47:39;21.75;;;14.55;;
26742;SDS011;14341;51.256;22.478;2022-09-13T17:50:43;24.77;;;15.50;;
26742;SDS011;14341;51.256;22.478;2022-09-13T17:53:48;32.33;;;15.65;;
26742;SDS011;14341;51.256;22.478;2022-09-13T17:56:53;27.35;;;15.77;;
26742;SDS011;14341;51.256;22.478;2022-09-13T18:00:05;26.05;;;15.48;;
26742;SDS011;14341;51.256;22.478;2022-09-13T18:03:12;21.05;;;12.27;;
26742;SDS011;14341;51.256;22.478;2022-09-13T18:06:17;25.15;;;15.20;;
26742;SDS011;14341;51.256;22.478;2022-09-13T18:09:21;21.88;;;14.68;;
26742;SDS011;14341;51.256;22.478;2022-09-13T18:12:27;25.52;;;14.75;;
26742;SDS011;14341;51.256;22.478;2022-09-13T18:15:34;26.77;;;16.17;;
26742;SDS011;14341;51.256;22.478;2022-09-13T18:18:39;21.77;;;14.57;;
26742;SDS011;14341;51.256;22.478;2022-09-13T18:21:47;20.02;;;13.95;;
26742;SDS011;14341;51.256;22.478;2022-09-13T18:24:53;19.67;;;13.65;;
26742;SDS011;14341;51.256;22.478;2022-09-13T18:27:58;21.20;;;13.60;;
26742;SDS011;14341;51.256;22.478;2022-09-13T18:31:05;29.90;;;18.38;;
26742;SDS011;14341;51.256;22.478;2022-09-13T18:39:13;36.00;;;25.98;;
26742;SDS011;14341;51.256;22.478;2022-09-13T18:42:18;23.65;;;18.48;;
26742;SDS011;14341;51.256;22.478;2022-09-13T18:45:22;23.77;;;15.68;;
26742;SDS011;14341;51.256;22.478;2022-09-13T18:48:33;23.30;;;15.40;;
26742;SDS011;14341;51.256;22.478;2022-09-13T18:54:42;22.80;;;15.75;;
26742;SDS011;14341;51.256;22.478;2022-09-13T18:57:46;22.83;;;14.98;;
26742;SDS011;14341;51.256;22.478;2022-09-13T19:01:00;24.10;;;15.30;;
26742;SDS011;14341;51.256;22.478;2022-09-13T19:04:08;24.98;;;16.27;;
26742;SDS011;14341;51.256;22.478;2022-09-13T19:07:13;23.00;;;16.17;;
26742;SDS011;14341;51.256;22.478;2022-09-13T19:10:17;20.55;;;15.95;;
26742;SDS011;14341;51.256;22.478;2022-09-13T19:13:21;22.70;;;17.00;;
26742;SDS011;14341;51.256;22.478;2022-09-13T19:16:25;20.65;;;16.63;;
26742;SDS011;14341;51.256;22.478;2022-09-13T19:19:31;20.20;;;17.27;;
26742;SDS011;14341;51.256;22.478;2022-09-13T19:22:36;21.10;;;16.83;;
26742;SDS011;14341;51.256;22.478;2022-09-13T19:25:40;19.67;;;17.55;;
26742;SDS011;14341;51.256;22.478;2022-09-13T19:28:45;22.88;;;18.05;;
26742;SDS011;14341;51.256;22.478;2022-09-13T19:31:50;25.17;;;20.95;;
26742;SDS011;14341;51.256;22.478;2022-09-13T19:34:58;23.83;;;20.27;;
26742;SDS011;14341;51.256;22.478;2022-09-13T19:38:02;28.95;;;21.55;;
26742;SDS011;14341;51.256;22.478;2022-09-13T19:41:06;27.70;;;22.60;;
26742;SDS011;14341;51.256;22.478;2022-09-13T19:44:12;25.75;;;21.60;;
26742;SDS011;14341;51.256;22.478;2022-09-13T19:47:17;24.98;;;22.27;;
26742;SDS011;14341;51.256;22.478;2022-09-13T19:50:43;27.50;;;22.15;;
26742;SDS011;14341;51.256;22.478;2022-09-13T19:53:49;24.98;;;22.27;;
26742;SDS011;14341;51.256;22.478;2022-09-13T19:56:59;25.45;;;21.30;;
26742;SDS011;14341;51.256;22.478;2022-09-13T20:00:04;23.98;;;21.38;;
26742;SDS011;14341;51.256;22.478;2022-09-13T20:03:09;26.48;;;20.95;;
26742;SDS011;14341;51.256;22.478;2022-09-13T20:06:14;27.55;;;20.92;;
26742;SDS011;14341;51.256;22.478;2022-09-13T20:09:20;22.08;;;19.42;;
26742;SDS011;14341;51.256;22.478;2022-09-13T20:12:25;22.30;;;19.58;;
26742;SDS011;14341;51.256;22.478;2022-09-13T20:15:30;23.73;;;19.65;;
26742;SDS011;14341;51.256;22.478;2022-09-13T20:18:34;22.80;;;19.83;;
26742;SDS011;14341;51.256;22.478;2022-09-13T20:21:39;23.35;;;19.08;;
26742;SDS011;14341;51.256;22.478;2022-09-13T20:24:43;21.48;;;19.00;;
26742;SDS011;14341;51.256;22.478;2022-09-13T20:27:47;22.98;;;19.33;;
26742;SDS011;14341;51.256;22.478;2022-09-13T20:30:52;24.50;;;18.77;;
26742;SDS011;14341;51.256;22.478;2022-09-13T20:33:56;24.98;;;19.05;;
26742;SDS011;14341;51.256;22.478;2022-09-13T20:37:02;21.17;;;17.73;;
26742;SDS011;14341;51.256;22.478;2022-09-13T20:40:05;22.75;;;19.25;;
26742;SDS011;14341;51.256;22.478;2022-09-13T20:43:11;20.15;;;17.95;;
26742;SDS011;14341;51.256;22.478;2022-09-13T20:46:14;21.85;;;18.73;;